Time;durP1;ratioP1;P1;durP2;ratioP2;P2;SDS_P1;SDS_P2;PMS_P1;PMS_P2;Temp;Humidity;BMP_temperature;BMP_pressure;BME280_temperature;BME280_humidity;BME280_pressure;Samples;Min_cycle;Max_cycle;Signal;HPM_P1;HPM_P2
2023/02/24 00:01:11;;;;;;;73.40;26.70;;;;;;;;;;5057578;28;20049;-83
2023/02/24 00:03:39;;;;;;;81.63;29.58;;;;;;;;;;5059526;28;20045;-83
2023/02/24 00:06:10;;;;;;;80.97;29.02;;;;;;;;;;5038985;28;20048;-83
2023/02/24 00:08:38;;;;;;;75.22;28.52;;;;;;;;;;5059962;28;20049;-83
2023/02/24 00:11:12;;;;;;;76.82;29.05;;;;;;;;;;5058340;28;20067;-83
2023/02/24 00:13:39;;;;;;;84.65;30.48;;;;;;;;;;5059345;28;20056;-83
2023/02/24 00:16:06;;;;;;;90.93;32.30;;;;;;;;;;5061387;28;20049;-83
2023/02/24 00:18:32;;;;;;;79.95;28.02;;;;;;;;;;5056725;28;20055;-82
2023/02/24 00:21:11;;;;;;;75.15;27.50;;;;;;;;;;5054454;28;20531;-83
2023/02/24 00:23:39;;;;;;;73.75;26.27;;;;;;;;;;5054002;28;20079;-83
2023/02/24 00:26:06;;;;;;;79.20;27.33;;;;;;;;;;5050832;28;20449;-83
2023/02/24 00:28:33;;;;;;;69.75;25.10;;;;;;;;;;5035945;28;20057;-84
2023/02/24 00:31:04;;;;;;;72.53;25.10;;;;;;;;;;5036787;28;20059;-83
2023/02/24 00:33:31;;;;;;;73.18;24.95;;;;;;;;;;5036004;28;20498;-83
2023/02/24 00:36:32;;;;;;;76.90;26.25;;;;;;;;;;5036063;28;20053;-84
2023/02/24 00:39:00;;;;;;;72.35;25.33;;;;;;;;;;4999134;28;20057;-83
2023/02/24 00:41:31;;;;;;;76.72;24.65;;;;;;;;;;5044084;28;20059;-84
2023/02/24 00:44:04;;;;;;;69.45;23.88;;;;;;;;;;5045018;28;20063;-83
2023/02/24 00:46:35;;;;;;;69.07;23.60;;;;;;;;;;5045275;28;20064;-83
2023/02/24 00:49:06;;;;;;;66.30;23.17;;;;;;;;;;5038718;28;20584;-82
2023/02/24 00:51:37;;;;;;;63.63;21.85;;;;;;;;;;5015732;28;20462;-82
2023/02/24 00:54:04;;;;;;;64.13;21.67;;;;;;;;;;5013538;28;20132;-83
2023/02/24 00:56:31;;;;;;;67.78;21.52;;;;;;;;;;5019482;28;20135;-83
2023/02/24 00:58:58;;;;;;;63.72;22.20;;;;;;;;;;5032986;28;20053;-81
2023/02/24 01:01:26;;;;;;;66.63;22.38;;;;;;;;;;5031525;28;20311;-82
2023/02/24 01:03:56;;;;;;;59.22;23.48;;;;;;;;;;5031665;28;20049;-81
2023/02/24 01:06:25;;;;;;;67.28;23.15;;;;;;;;;;5031472;28;20056;-82
2023/02/24 01:08:52;;;;;;;67.47;23.48;;;;;;;;;;5032087;28;20088;-85
2023/02/24 01:14:13;;;;;;;68.03;23.50;;;;;;;;;;5034367;28;20046;-83
2023/02/24 01:16:40;;;;;;;70.78;22.27;;;;;;;;;;5033458;28;20517;-83
2023/02/24 01:19:11;;;;;;;73.63;24.83;;;;;;;;;;5033659;28;20091;-84
2023/02/24 01:21:37;;;;;;;71.32;24.25;;;;;;;;;;5033294;28;20118;-83
2023/02/24 01:24:04;;;;;;;73.60;25.17;;;;;;;;;;5030847;28;20052;-84
2023/02/24 01:26:30;;;;;;;81.35;25.52;;;;;;;;;;5032722;28;20103;-84
2023/02/24 01:28:56;;;;;;;79.60;27.27;;;;;;;;;;5015482;28;20050;-83
2023/02/24 01:31:23;;;;;;;86.30;28.05;;;;;;;;;;5033822;28;20069;-83
2023/02/24 01:33:51;;;;;;;89.18;29.00;;;;;;;;;;5015658;28;20085;-83
2023/02/24 01:36:18;;;;;;;83.38;28.90;;;;;;;;;;5034258;28;20057;-84
2023/02/24 01:38:46;;;;;;;87.50;28.27;;;;;;;;;;5033682;28;20308;-83
2023/02/24 01:41:15;;;;;;;87.75;28.30;;;;;;;;;;5019081;28;20136;-84
2023/02/24 01:43:57;;;;;;;86.53;26.50;;;;;;;;;;5019500;28;20135;-83
2023/02/24 01:46:27;;;;;;;89.55;28.40;;;;;;;;;;5037427;28;20107;-82
2023/02/24 01:48:56;;;;;;;93.90;28.83;;;;;;;;;;5035918;28;20049;-83
2023/02/24 01:51:26;;;;;;;92.70;29.48;;;;;;;;;;5036796;28;20132;-83
2023/02/24 01:53:53;;;;;;;95.05;29.40;;;;;;;;;;5016609;28;20380;-84
2023/02/24 01:56:20;;;;;;;94.35;28.55;;;;;;;;;;5036617;28;20054;-83
2023/02/24 01:58:46;;;;;;;91.97;29.77;;;;;;;;;;5037515;28;20057;-84
2023/02/24 02:01:15;;;;;;;84.45;28.23;;;;;;;;;;5037799;28;20061;-83
2023/02/24 02:03:43;;;;;;;87.70;28.15;;;;;;;;;;5018433;28;20053;-83
2023/02/24 02:06:10;;;;;;;79.15;26.35;;;;;;;;;;5036224;28;20132;-82
2023/02/24 02:08:39;;;;;;;81.13;24.40;;;;;;;;;;5036233;28;20132;-82
2023/02/24 02:11:07;;;;;;;70.05;22.70;;;;;;;;;;5036800;28;20485;-83
2023/02/24 02:13:35;;;;;;;74.80;22.90;;;;;;;;;;5019114;28;20053;-84
2023/02/24 02:16:04;;;;;;;73.40;23.35;;;;;;;;;;5019451;28;20073;-80
2023/02/24 02:18:55;;;;;;;85.18;25.05;;;;;;;;;;5036725;28;20048;-84
2023/02/24 02:21:48;;;;;;;77.50;24.48;;;;;;;;;;5037355;28;20483;-83
2023/02/24 02:24:26;;;;;;;70.70;23.95;;;;;;;;;;5034214;28;20600;-83
2023/02/24 02:27:01;;;;;;;74.43;23.67;;;;;;;;;;5037668;28;20159;-83
2023/02/24 02:29:30;;;;;;;82.90;25.67;;;;;;;;;;5019169;28;20354;-82
2023/02/24 02:31:57;;;;;;;75.70;25.27;;;;;;;;;;5036330;28;20084;-82
2023/02/24 02:34:35;;;;;;;78.55;25.13;;;;;;;;;;5034269;28;20057;-83
2023/02/24 02:37:07;;;;;;;91.57;27.83;;;;;;;;;;5036938;28;20053;-83
2023/02/24 02:39:36;;;;;;;86.32;26.60;;;;;;;;;;5035628;28;20053;-83
2023/02/24 02:42:13;;;;;;;85.22;26.35;;;;;;;;;;5037638;28;20216;-83
2023/02/24 02:44:56;;;;;;;83.35;26.17;;;;;;;;;;5038875;28;20049;-84
2023/02/24 02:47:28;;;;;;;82.40;25.95;;;;;;;;;;5042776;28;20083;-83
2023/02/24 02:49:59;;;;;;;83.15;26.95;;;;;;;;;;5025013;28;20087;-83
2023/02/24 02:52:38;;;;;;;82.75;27.00;;;;;;;;;;5043391;28;20624;-83
2023/02/24 02:55:08;;;;;;;83.00;25.23;;;;;;;;;;5031409;28;20419;-81
2023/02/24 02:57:36;;;;;;;86.78;26.67;;;;;;;;;;5034119;28;20136;-83
2023/02/24 03:00:13;;;;;;;84.80;26.98;;;;;;;;;;5034268;28;20050;-83
2023/02/24 03:02:45;;;;;;;87.53;26.67;;;;;;;;;;5035599;28;20049;-81
2023/02/24 03:05:16;;;;;;;83.57;25.48;;;;;;;;;;5034591;28;20472;-83
2023/02/24 03:07:45;;;;;;;79.82;25.42;;;;;;;;;;5016691;28;20079;-83
2023/02/24 03:10:19;;;;;;;74.38;23.98;;;;;;;;;;5032581;28;20052;-82
2023/02/24 03:12:49;;;;;;;75.60;24.57;;;;;;;;;;5034392;28;20109;-83
2023/02/24 03:15:16;;;;;;;74.57;24.20;;;;;;;;;;5033752;28;20046;-82
2023/02/24 03:17:44;;;;;;;70.03;22.98;;;;;;;;;;5033684;28;20143;-81
2023/02/24 03:20:41;;;;;;;67.13;23.05;;;;;;;;;;5033011;28;20069;-83
2023/02/24 03:23:15;;;;;;;71.50;22.13;;;;;;;;;;5017067;28;20045;-81
2023/02/24 03:25:45;;;;;;;59.40;19.83;;;;;;;;;;5030896;28;20053;-82
2023/02/24 03:28:21;;;;;;;48.70;15.48;;;;;;;;;;5052414;28;20049;-81
2023/02/24 03:30:54;;;;;;;51.05;14.95;;;;;;;;;;5035083;28;20051;-82
2023/02/24 03:33:28;;;;;;;47.58;13.52;;;;;;;;;;5052776;28;20053;-81
2023/02/24 03:36:00;;;;;;;62.10;13.75;;;;;;;;;;5033745;28;20080;-81
2023/02/24 03:38:29;;;;;;;52.45;11.88;;;;;;;;;;5036118;28;20049;-82
2023/02/24 03:40:56;;;;;;;54.40;11.20;;;;;;;;;;5052918;28;20076;-84
2023/02/24 03:43:29;;;;;;;52.67;11.43;;;;;;;;;;5054853;28;20171;-84
2023/02/24 03:45:56;;;;;;;48.95;11.95;;;;;;;;;;5039098;28;20050;-84
2023/02/24 03:48:23;;;;;;;49.28;10.43;;;;;;;;;;5004433;28;20539;-83
2023/02/24 03:50:51;;;;;;;53.25;11.93;;;;;;;;;;5034047;28;20052;-82
2023/02/24 03:53:29;;;;;;;47.60;11.18;;;;;;;;;;5035413;28;20050;-85
2023/02/24 03:56:12;;;;;;;55.20;12.82;;;;;;;;;;5015253;28;20049;-85
2023/02/24 03:58:58;;;;;;;54.30;13.00;;;;;;;;;;5017499;28;20073;-82
2023/02/24 04:01:43;;;;;;;52.95;12.52;;;;;;;;;;5034915;28;20049;-84
2023/02/24 04:04:18;;;;;;;58.92;13.55;;;;;;;;;;5034497;28;20178;-83
2023/02/24 04:06:53;;;;;;;48.83;12.40;;;;;;;;;;5035735;28;20045;-85
2023/02/24 04:09:38;;;;;;;58.17;12.77;;;;;;;;;;5033583;28;20140;-84
2023/02/24 04:12:07;;;;;;;58.22;12.70;;;;;;;;;;5017282;28;20727;-84
2023/02/24 04:14:43;;;;;;;46.58;11.57;;;;;;;;;;5034881;28;20099;-84
2023/02/24 04:17:18;;;;;;;56.50;12.73;;;;;;;;;;5034740;28;20143;-84
2023/02/24 04:19:46;;;;;;;48.88;11.43;;;;;;;;;;5035119;28;20068;-84
2023/02/24 04:22:15;;;;;;;48.63;11.20;;;;;;;;;;5034977;28;20121;-85
2023/02/24 04:24:43;;;;;;;46.17;11.90;;;;;;;;;;5032879;28;20057;-84
2023/02/24 04:27:10;;;;;;;52.22;12.70;;;;;;;;;;5046971;28;20099;-83
2023/02/24 04:29:40;;;;;;;48.15;12.95;;;;;;;;;;5055479;28;20160;-85
2023/02/24 04:32:08;;;;;;;45.75;13.07;;;;;;;;;;5062048;28;20108;-84
2023/02/24 04:34:36;;;;;;;49.40;13.52;;;;;;;;;;5044897;28;20104;-84
2023/02/24 04:37:02;;;;;;;55.05;14.30;;;;;;;;;;5055492;28;20512;-84
2023/02/24 04:39:29;;;;;;;49.85;13.80;;;;;;;;;;5035953;28;20546;-83
2023/02/24 04:41:56;;;;;;;53.47;13.88;;;;;;;;;;5056049;28;20144;-84
2023/02/24 04:44:24;;;;;;;54.00;14.90;;;;;;;;;;5055436;28;20084;-84
2023/02/24 04:46:52;;;;;;;52.55;13.73;;;;;;;;;;5037976;28;20191;-84
2023/02/24 04:49:19;;;;;;;51.97;14.00;;;;;;;;;;5053795;28;20053;-83
2023/02/24 04:51:46;;;;;;;50.45;15.13;;;;;;;;;;5055811;28;20425;-84
2023/02/24 04:54:16;;;;;;;62.92;15.80;;;;;;;;;;5053313;28;20075;-84
2023/02/24 04:56:47;;;;;;;55.95;16.65;;;;;;;;;;5037716;28;20053;-82
2023/02/24 04:59:13;;;;;;;68.78;16.10;;;;;;;;;;5056136;28;20083;-83
2023/02/24 05:01:42;;;;;;;63.53;16.90;;;;;;;;;;5056604;28;20107;-85
2023/02/24 05:04:10;;;;;;;57.30;17.30;;;;;;;;;;5055769;28;20108;-85
2023/02/24 05:06:42;;;;;;;46.85;13.77;;;;;;;;;;5059060;28;20053;-83
2023/02/24 05:09:13;;;;;;;30.98;10.43;;;;;;;;;;5048854;28;20076;-84
2023/02/24 05:11:43;;;;;;;38.55;10.00;;;;;;;;;;5050937;28;20083;-83
2023/02/24 05:14:13;;;;;;;37.63;12.02;;;;;;;;;;5050581;28;20045;-84
2023/02/24 05:16:41;;;;;;;28.75;10.20;;;;;;;;;;5055589;28;20076;-83
2023/02/24 05:21:56;;;;;;;29.65;9.77;;;;;;;;;;5056008;28;20048;-83
2023/02/24 05:24:24;;;;;;;36.33;11.20;;;;;;;;;;5053442;28;20080;-84
2023/02/24 05:26:56;;;;;;;26.60;9.40;;;;;;;;;;5036569;28;20192;-83
2023/02/24 05:29:27;;;;;;;27.38;9.57;;;;;;;;;;5056140;28;20045;-83
2023/02/24 05:31:58;;;;;;;31.85;10.52;;;;;;;;;;5037757;28;20045;-84
2023/02/24 05:34:26;;;;;;;25.30;8.95;;;;;;;;;;5037741;28;20044;-84
2023/02/24 05:36:52;;;;;;;30.55;10.15;;;;;;;;;;5054690;28;20477;-82
2023/02/24 05:39:19;;;;;;;27.10;9.95;;;;;;;;;;5055445;28;20061;-85
2023/02/24 05:41:47;;;;;;;28.58;9.02;;;;;;;;;;5055580;28;20069;-82
2023/02/24 05:44:15;;;;;;;20.60;7.93;;;;;;;;;;5056669;28;20414;-85
2023/02/24 05:46:43;;;;;;;27.80;7.90;;;;;;;;;;5057409;28;20056;-83
2023/02/24 05:49:14;;;;;;;28.42;8.38;;;;;;;;;;5057018;28;20148;-84
2023/02/24 05:51:53;;;;;;;21.48;7.15;;;;;;;;;;5041398;28;20323;-83
2023/02/24 05:54:28;;;;;;;26.13;9.90;;;;;;;;;;5053077;28;20512;-83
2023/02/24 05:56:59;;;;;;;41.00;14.63;;;;;;;;;;5054712;28;20082;-82
2023/02/24 05:59:31;;;;;;;28.20;10.68;;;;;;;;;;5054961;28;20641;-84
2023/02/24 06:01:59;;;;;;;22.30;9.30;;;;;;;;;;5036216;28;20063;-82
2023/02/24 06:04:38;;;;;;;29.58;11.68;;;;;;;;;;5054064;28;20490;-83
2023/02/24 06:07:12;;;;;;;25.73;8.27;;;;;;;;;;5055218;28;20077;-84
2023/02/24 06:09:41;;;;;;;42.53;12.43;;;;;;;;;;5055495;28;20075;-84
2023/02/24 06:12:08;;;;;;;36.08;12.05;;;;;;;;;;5057673;28;20045;-85
2023/02/24 06:14:35;;;;;;;32.58;11.20;;;;;;;;;;5057197;28;20052;-85
2023/02/24 06:17:01;;;;;;;33.38;12.25;;;;;;;;;;5058062;28;20362;-84
2023/02/24 06:19:30;;;;;;;30.33;9.65;;;;;;;;;;5057294;28;20113;-85
2023/02/24 06:22:00;;;;;;;34.80;10.57;;;;;;;;;;5059176;28;20054;-85
2023/02/24 06:24:28;;;;;;;48.03;13.77;;;;;;;;;;5061362;28;20104;-83
2023/02/24 06:27:01;;;;;;;23.35;8.15;;;;;;;;;;5060421;28;20273;-84
2023/02/24 06:29:30;;;;;;;23.65;8.60;;;;;;;;;;5051671;28;20053;-85
2023/02/24 06:31:57;;;;;;;23.38;8.13;;;;;;;;;;5050817;28;20059;-85
2023/02/24 06:34:24;;;;;;;25.08;7.70;;;;;;;;;;5047521;28;20177;-84
2023/02/24 06:36:51;;;;;;;17.40;6.00;;;;;;;;;;5040361;28;20535;-83
2023/02/24 06:39:18;;;;;;;22.38;6.80;;;;;;;;;;5039718;28;20168;-83
2023/02/24 06:41:47;;;;;;;28.15;8.32;;;;;;;;;;5044679;28;20068;-85
2023/02/24 06:44:14;;;;;;;25.85;7.88;;;;;;;;;;5024193;28;20076;-85
2023/02/24 06:46:41;;;;;;;25.35;8.68;;;;;;;;;;5028973;28;20149;-85
2023/02/24 06:49:08;;;;;;;24.48;8.25;;;;;;;;;;5021942;28;20049;-85
2023/02/24 06:51:35;;;;;;;35.10;8.32;;;;;;;;;;5025054;28;20118;-84
2023/02/24 06:54:02;;;;;;;32.42;8.90;;;;;;;;;;5043425;28;20145;-85
2023/02/24 06:56:28;;;;;;;23.10;8.02;;;;;;;;;;5047529;28;20675;-85
2023/02/24 06:58:58;;;;;;;22.25;8.30;;;;;;;;;;5031466;28;20092;-84
2023/02/24 07:01:25;;;;;;;18.83;6.90;;;;;;;;;;5048319;28;20045;-84
2023/02/24 07:04:16;;;;;;;20.63;7.70;;;;;;;;;;5018454;28;20049;-83
2023/02/24 07:06:45;;;;;;;19.00;5.68;;;;;;;;;;5036275;28;20049;-84
2023/02/24 07:09:13;;;;;;;21.65;5.47;;;;;;;;;;5034172;28;20124;-83
2023/02/24 07:11:41;;;;;;;20.92;6.78;;;;;;;;;;5035611;28;20045;-84
2023/02/24 07:14:12;;;;;;;18.60;6.35;;;;;;;;;;5035091;28;20045;-84
2023/02/24 07:16:44;;;;;;;22.95;7.35;;;;;;;;;;5033439;28;20151;-83
2023/02/24 07:19:13;;;;;;;17.23;6.15;;;;;;;;;;5016509;28;20479;-85
2023/02/24 07:21:45;;;;;;;16.77;6.38;;;;;;;;;;5034991;28;20049;-83
2023/02/24 07:24:13;;;;;;;16.73;6.18;;;;;;;;;;5033940;28;20072;-82
2023/02/24 07:26:44;;;;;;;17.55;5.85;;;;;;;;;;5043513;28;20041;-83
2023/02/24 07:29:11;;;;;;;23.05;6.45;;;;;;;;;;5037041;28;20045;-83
2023/02/24 07:31:38;;;;;;;17.40;6.38;;;;;;;;;;5054886;28;20529;-83
2023/02/24 07:34:05;;;;;;;17.80;5.75;;;;;;;;;;5053926;28;20234;-84
2023/02/24 07:36:37;;;;;;;25.00;6.93;;;;;;;;;;5036555;28;20045;-82
2023/02/24 07:39:06;;;;;;;31.83;8.30;;;;;;;;;;5033708;28;20053;-83
2023/02/24 07:41:33;;;;;;;31.65;8.45;;;;;;;;;;5055105;28;20072;-82
2023/02/24 07:44:02;;;;;;;27.75;7.18;;;;;;;;;;5036496;28;20053;-85
2023/02/24 07:46:28;;;;;;;31.15;7.95;;;;;;;;;;5054842;28;20112;-84
2023/02/24 07:48:57;;;;;;;28.10;8.35;;;;;;;;;;5053650;28;20052;-84
2023/02/24 07:51:25;;;;;;;39.17;9.50;;;;;;;;;;5038243;28;20045;-84
2023/02/24 07:53:53;;;;;;;34.45;7.88;;;;;;;;;;5036661;28;20109;-85
2023/02/24 07:56:25;;;;;;;34.28;8.10;;;;;;;;;;5055997;28;20071;-83
2023/02/24 07:59:14;;;;;;;34.58;8.80;;;;;;;;;;5037445;28;20229;-84
2023/02/24 08:01:48;;;;;;;38.47;8.30;;;;;;;;;;5056593;28;20224;-84
2023/02/24 08:04:22;;;;;;;27.42;7.57;;;;;;;;;;5054924;28;20080;-83
2023/02/24 08:06:55;;;;;;;26.88;8.23;;;;;;;;;;5057270;28;20045;-86
2023/02/24 08:12:16;;;;;;;32.40;8.50;;;;;;;;;;5055186;28;20386;-84
2023/02/24 08:14:43;;;;;;;31.35;7.93;;;;;;;;;;5054280;28;20072;-83
2023/02/24 08:17:11;;;;;;;20.30;8.27;;;;;;;;;;5055616;28;20061;-83
2023/02/24 08:19:41;;;;;;;29.30;7.95;;;;;;;;;;5056219;28;20292;-84
2023/02/24 08:22:18;;;;;;;30.58;7.75;;;;;;;;;;5055715;28;20263;-84
2023/02/24 08:24:48;;;;;;;22.73;7.95;;;;;;;;;;5055446;28;20444;-84
2023/02/24 08:27:21;;;;;;;25.65;8.45;;;;;;;;;;5045425;28;20162;-84
2023/02/24 08:29:58;;;;;;;30.23;8.50;;;;;;;;;;5033428;28;20068;-83
2023/02/24 08:32:32;;;;;;;23.77;7.80;;;;;;;;;;5033885;28;20599;-82
2023/02/24 08:35:03;;;;;;;21.13;7.25;;;;;;;;;;5013723;28;20064;-82
2023/02/24 08:37:38;;;;;;;19.75;5.72;;;;;;;;;;5033779;28;20053;-82
2023/02/24 08:40:28;;;;;;;10.98;4.50;;;;;;;;;;5034883;28;20141;-84
2023/02/24 08:42:57;;;;;;;20.75;7.05;;;;;;;;;;5037820;28;20212;-84
2023/02/24 08:45:27;;;;;;;15.43;6.70;;;;;;;;;;5036989;28;20152;-84
2023/02/24 08:47:59;;;;;;;21.92;7.57;;;;;;;;;;5036891;28;20045;-84
2023/02/24 08:50:29;;;;;;;24.98;7.57;;;;;;;;;;5037061;28;20041;-84
2023/02/24 08:52:57;;;;;;;21.27;7.95;;;;;;;;;;5025376;28;20057;-86
2023/02/24 08:55:29;;;;;;;17.83;7.00;;;;;;;;;;5043596;28;20083;-86
2023/02/24 08:58:00;;;;;;;15.95;7.18;;;;;;;;;;5035526;28;20057;-86
2023/02/24 09:00:48;;;;;;;18.40;7.40;;;;;;;;;;5016242;28;20053;-85
2023/02/24 09:03:26;;;;;;;20.88;6.97;;;;;;;;;;5017274;28;20050;-84
2023/02/24 09:05:57;;;;;;;24.52;8.73;;;;;;;;;;5035187;28;20127;-85
2023/02/24 09:08:31;;;;;;;21.58;9.68;;;;;;;;;;5035622;28;20048;-86
2023/02/24 09:10:59;;;;;;;26.67;9.48;;;;;;;;;;5034764;28;20053;-87
2023/02/24 09:13:32;;;;;;;24.13;9.50;;;;;;;;;;5019757;28;20041;-86
2023/02/24 09:15:59;;;;;;;20.67;8.30;;;;;;;;;;5035837;28;20505;-85
2023/02/24 09:18:29;;;;;;;22.00;8.15;;;;;;;;;;5018080;28;20065;-85
2023/02/24 09:21:14;;;;;;;23.83;8.15;;;;;;;;;;5018758;28;20057;-84
2023/02/24 09:23:47;;;;;;;;;;;;;;;;;;5035322;28;20092;-85
2023/02/24 09:26:14;;;;;;;16.90;6.50;;;;;;;;;;5039478;28;20370;-86
2023/02/24 09:28:53;;;;;;;18.00;6.65;;;;;;;;;;5055020;28;20235;-85
2023/02/24 09:31:22;;;;;;;18.95;7.00;;;;;;;;;;5056231;28;20057;-84
2023/02/24 09:33:50;;;;;;;16.92;7.00;;;;;;;;;;5054800;28;20049;-85
2023/02/24 09:36:26;;;;;;;22.55;7.88;;;;;;;;;;5054904;28;20067;-83
2023/02/24 09:44:40;;;;;;;12.95;5.88;;;;;;;;;;5053932;28;20048;-85
2023/02/24 09:47:07;;;;;;;;;;;;;;;;;;5052061;28;20057;-85
2023/02/24 09:49:45;;;;;;;16.10;6.93;;;;;;;;;;5053953;28;19921;-85
2023/02/24 09:52:16;;;;;;;22.88;8.40;;;;;;;;;;5054244;28;20075;-85
2023/02/24 09:55:11;;;;;;;23.67;7.72;;;;;;;;;;5052228;28;20113;-85
2023/02/24 09:57:36;;;;;;;20.30;8.13;;;;;;;;;;5053369;28;20057;-85
2023/02/24 10:00:24;;;;;;;19.17;6.55;;;;;;;;;;5054499;28;20048;-84
2023/02/24 10:03:02;;;;;;;21.98;7.50;;;;;;;;;;5062129;28;20112;-83
2023/02/24 10:05:37;;;;;;;20.30;7.57;;;;;;;;;;5037717;28;20059;-84
2023/02/24 10:08:12;;;;;;;23.65;8.48;;;;;;;;;;5054449;28;20053;-82
2023/02/24 10:10:59;;;;;;;17.15;7.70;;;;;;;;;;5053184;28;20073;-83
2023/02/24 10:13:31;;;;;;;24.25;9.20;;;;;;;;;;5054548;28;20061;-83
2023/02/24 10:16:04;;;;;;;21.63;9.23;;;;;;;;;;5055193;28;20436;-84
2023/02/24 10:18:41;;;;;;;28.55;10.05;;;;;;;;;;5054552;28;20053;-84
2023/02/24 10:21:08;;;;;;;23.70;10.27;;;;;;;;;;5055190;28;20068;-84
2023/02/24 10:23:34;;;;;;;22.50;9.50;;;;;;;;;;5053881;28;20140;-83
2023/02/24 10:26:20;;;;;;;26.20;10.60;;;;;;;;;;5051073;28;20057;-81
2023/02/24 10:28:52;;;;;;;23.55;8.90;;;;;;;;;;5036125;28;20129;-84
2023/02/24 10:31:24;;;;;;;19.88;7.65;;;;;;;;;;5018657;28;20077;-85
2023/02/24 10:34:00;;;;;;;23.15;8.13;;;;;;;;;;5036413;28;20140;-84
2023/02/24 10:36:34;;;;;;;18.63;7.60;;;;;;;;;;5036897;28;20132;-84
2023/02/24 10:39:14;;;;;;;19.83;8.32;;;;;;;;;;5033846;28;20052;-85
2023/02/24 10:41:45;;;;;;;24.95;8.95;;;;;;;;;;5036613;28;20063;-84
2023/02/24 10:44:19;;;;;;;24.65;9.07;;;;;;;;;;5035820;28;20513;-84
2023/02/24 10:46:45;;;;;;;19.98;8.50;;;;;;;;;;5034249;28;20622;-83
2023/02/24 10:49:15;;;;;;;18.48;8.27;;;;;;;;;;5035908;28;20049;-83
2023/02/24 10:51:46;;;;;;;21.52;8.20;;;;;;;;;;5042740;28;20061;-84
2023/02/24 10:54:32;;;;;;;23.10;9.05;;;;;;;;;;5024733;28;20049;-84
2023/02/24 10:57:14;;;;;;;24.75;8.32;;;;;;;;;;5016327;28;20422;-82
2023/02/24 11:00:19;;;;;;;20.52;8.20;;;;;;;;;;5016136;28;20087;-82
2023/02/24 11:03:09;;;;;;;18.45;7.63;;;;;;;;;;5032404;28;20148;-83
2023/02/24 11:05:55;;;;;;;21.70;8.57;;;;;;;;;;5014981;28;20450;-85
2023/02/24 11:11:18;;;;;;;16.80;7.60;;;;;;;;;;5035237;28;20060;-84
2023/02/24 11:19:30;;;;;;;;;;;;;;;;;;5044425;28;20065;-84
2023/02/24 11:21:57;;;;;;;12.15;5.50;;;;;;;;;;5035715;28;19925;-84
2023/02/24 11:24:24;;;;;;;12.05;4.95;;;;;;;;;;5034361;28;20053;-83
2023/02/24 11:26:51;;;;;;;12.50;5.65;;;;;;;;;;5035043;28;20056;-83
2023/02/24 11:29:26;;;;;;;12.45;4.97;;;;;;;;;;5033257;28;20041;-83
2023/02/24 11:32:01;;;;;;;11.77;5.30;;;;;;;;;;5032529;28;20131;-82
2023/02/24 11:34:37;;;;;;;13.95;5.70;;;;;;;;;;5032043;28;20050;-82
2023/02/24 11:37:36;;;;;;;12.43;5.53;;;;;;;;;;5009436;28;20053;-82
2023/02/24 11:40:09;;;;;;;13.40;5.35;;;;;;;;;;4986065;28;20053;-83
2023/02/24 11:42:37;;;;;;;11.95;5.22;;;;;;;;;;5035378;28;20045;-82
2023/02/24 11:45:26;;;;;;;12.63;5.18;;;;;;;;;;5034371;28;20057;-83
2023/02/24 11:47:58;;;;;;;10.20;5.40;;;;;;;;;;5036634;28;20060;-82
2023/02/24 11:50:43;;;;;;;12.57;5.45;;;;;;;;;;5042627;28;20045;-82
2023/02/24 11:53:29;;;;;;;14.13;5.65;;;;;;;;;;5037268;28;20125;-82
2023/02/24 11:56:02;;;;;;;12.35;4.88;;;;;;;;;;5022789;28;20053;-80
2023/02/24 11:58:34;;;;;;;10.93;4.85;;;;;;;;;;5043147;28;20057;-81
2023/02/24 12:01:05;;;;;;;14.32;5.28;;;;;;;;;;5046384;28;20049;-82
2023/02/24 12:03:52;;;;;;;13.70;6.00;;;;;;;;;;5046924;28;20084;-82
2023/02/24 12:06:25;;;;;;;10.75;4.68;;;;;;;;;;5030073;28;20064;-82
2023/02/24 12:08:55;;;;;;;12.65;5.22;;;;;;;;;;5039566;28;20049;-82
2023/02/24 12:11:22;;;;;;;14.98;5.70;;;;;;;;;;5036845;28;20049;-82
2023/02/24 12:13:52;;;;;;;10.15;5.05;;;;;;;;;;5021695;28;20045;-81
2023/02/24 12:16:32;;;;;;;10.13;5.10;;;;;;;;;;5022099;28;20072;-82
2023/02/24 12:19:03;;;;;;;11.40;5.07;;;;;;;;;;5039671;28;20049;-82
2023/02/24 12:21:40;;;;;;;8.50;4.15;;;;;;;;;;5021143;28;20068;-82
2023/02/24 12:24:11;;;;;;;11.45;4.88;;;;;;;;;;5031026;28;20136;-81
2023/02/24 12:26:46;;;;;;;12.25;4.93;;;;;;;;;;5037761;28;20055;-80
2023/02/24 12:29:14;;;;;;;;;;;;;;;;;;5054265;28;20350;-81
2023/02/24 12:31:52;;;;;;;11.85;5.25;;;;;;;;;;5059177;28;19924;-82
2023/02/24 12:34:38;;;;;;;11.48;4.85;;;;;;;;;;5060514;28;20098;-80
2023/02/24 12:37:06;;;;;;;15.20;5.18;;;;;;;;;;5066084;28;20138;-80
2023/02/24 12:39:45;;;;;;;12.20;4.97;;;;;;;;;;5054822;28;20508;-81
2023/02/24 12:42:17;;;;;;;12.23;4.50;;;;;;;;;;5053586;28;20059;-81
2023/02/24 12:44:43;;;;;;;10.20;4.88;;;;;;;;;;5052743;28;20049;-81
2023/02/24 12:47:15;;;;;;;8.35;4.10;;;;;;;;;;5050854;28;20076;-82
2023/02/24 12:49:41;;;;;;;14.45;5.15;;;;;;;;;;5052660;28;20278;-82
2023/02/24 12:52:22;;;;;;;12.98;4.95;;;;;;;;;;5053068;28;20136;-81
2023/02/24 12:54:53;;;;;;;10.40;5.07;;;;;;;;;;5032945;28;20051;-81
2023/02/24 12:57:26;;;;;;;12.27;5.30;;;;;;;;;;5052538;28;20187;-83
2023/02/24 12:59:53;;;;;;;12.68;5.40;;;;;;;;;;5052905;28;20052;-82
2023/02/24 13:02:42;;;;;;;10.98;5.03;;;;;;;;;;5053485;28;20053;-83
2023/02/24 13:05:15;;;;;;;11.43;4.82;;;;;;;;;;5052730;28;20056;-83
2023/02/24 13:07:41;;;;;;;13.23;5.30;;;;;;;;;;5053003;28;20553;-81
2023/02/24 13:10:15;;;;;;;14.25;5.22;;;;;;;;;;5050625;28;20494;-80
2023/02/24 13:12:41;;;;;;;11.48;4.90;;;;;;;;;;5052571;28;20049;-82
2023/02/24 13:15:17;;;;;;;10.02;4.47;;;;;;;;;;5064653;28;20041;-81
2023/02/24 13:17:49;;;;;;;11.63;5.20;;;;;;;;;;5063404;28;20077;-80
2023/02/24 13:20:27;;;;;;;11.70;4.97;;;;;;;;;;5049709;28;20044;-79
2023/02/24 13:22:54;;;;;;;13.50;5.25;;;;;;;;;;5064861;28;20059;-81
2023/02/24 13:25:29;;;;;;;11.88;5.28;;;;;;;;;;5050121;28;20072;-80
2023/02/24 13:28:00;;;;;;;10.63;4.67;;;;;;;;;;5015961;28;20486;-82
2023/02/24 13:30:40;;;;;;;12.57;4.55;;;;;;;;;;5031548;28;20128;-80
2023/02/24 13:33:16;;;;;;;14.45;5.18;;;;;;;;;;5031278;28;20073;-81
2023/02/24 13:35:42;;;;;;;16.05;6.55;;;;;;;;;;5033170;28;20045;-81
2023/02/24 13:38:22;;;;;;;14.75;6.05;;;;;;;;;;5049795;28;20376;-82
2023/02/24 13:40:48;;;;;;;11.57;5.55;;;;;;;;;;5041408;28;20057;-81
2023/02/24 13:43:26;;;;;;;9.27;4.82;;;;;;;;;;5036152;28;20059;-81
2023/02/24 13:45:54;;;;;;;10.50;4.70;;;;;;;;;;5035860;28;20064;-81
2023/02/24 13:48:21;;;;;;;12.30;5.28;;;;;;;;;;5034148;28;20077;-81
2023/02/24 13:50:53;;;;;;;12.88;5.85;;;;;;;;;;5034631;28;20060;-81
2023/02/24 13:53:29;;;;;;;11.82;5.20;;;;;;;;;;5035572;28;20422;-80
2023/02/24 13:55:55;;;;;;;10.27;4.90;;;;;;;;;;5033154;28;20049;-81
2023/02/24 13:58:40;;;;;;;11.75;5.28;;;;;;;;;;5034763;28;20053;-81
2023/02/24 14:01:12;;;;;;;15.20;5.47;;;;;;;;;;5035331;28;20060;-83
2023/02/24 14:03:40;;;;;;;14.70;5.80;;;;;;;;;;5034835;28;20076;-81
2023/02/24 14:06:27;;;;;;;15.35;5.80;;;;;;;;;;5034338;28;20498;-81
2023/02/24 14:08:58;;;;;;;15.55;5.63;;;;;;;;;;5034534;28;20417;-82
2023/02/24 14:11:27;;;;;;;14.93;5.70;;;;;;;;;;5016286;28;20600;-79
2023/02/24 14:13:54;;;;;;;12.70;6.65;;;;;;;;;;5035151;28;20046;-80
2023/02/24 14:16:23;;;;;;;13.80;6.18;;;;;;;;;;5035254;28;20448;-80
2023/02/24 14:18:53;;;;;;;17.83;6.45;;;;;;;;;;5034969;28;20056;-80
2023/02/24 14:21:21;;;;;;;12.85;5.60;;;;;;;;;;5035347;28;20121;-81
2023/02/24 14:23:54;;;;;;;15.65;6.00;;;;;;;;;;5034058;28;20072;-81
2023/02/24 14:26:20;;;;;;;16.52;6.93;;;;;;;;;;5038776;28;20299;-81
2023/02/24 14:28:52;;;;;;;17.60;6.65;;;;;;;;;;5054903;28;20102;-81
2023/02/24 14:31:20;;;;;;;16.90;6.35;;;;;;;;;;5054360;28;20132;-80
2023/02/24 14:33:52;;;;;;;14.52;5.80;;;;;;;;;;5054102;28;20114;-81
2023/02/24 14:36:26;;;;;;;14.38;6.25;;;;;;;;;;5053874;28;20066;-81
2023/02/24 14:39:18;;;;;;;13.77;5.85;;;;;;;;;;5053615;28;20048;-82
2023/02/24 14:41:46;;;;;;;11.88;5.65;;;;;;;;;;5005953;28;20053;-81
2023/02/24 14:44:23;;;;;;;20.25;6.43;;;;;;;;;;5053980;28;20129;-84
2023/02/24 14:46:54;;;;;;;12.52;5.75;;;;;;;;;;5050844;28;20581;-81
2023/02/24 14:49:23;;;;;;;12.50;5.38;;;;;;;;;;5053023;28;20053;-80
2023/02/24 14:51:59;;;;;;;12.07;5.18;;;;;;;;;;5040491;28;20078;-82
2023/02/24 14:54:37;;;;;;;13.45;5.18;;;;;;;;;;5002969;28;20312;-81
2023/02/24 14:57:04;;;;;;;14.55;5.18;;;;;;;;;;5026189;28;20042;-80
2023/02/24 14:59:34;;;;;;;12.23;4.93;;;;;;;;;;5020140;28;20372;-80
2023/02/24 15:02:01;;;;;;;12.23;4.75;;;;;;;;;;5027975;28;20745;-81
2023/02/24 15:04:42;;;;;;;9.90;4.50;;;;;;;;;;5013022;28;20516;-80
2023/02/24 15:07:17;;;;;;;12.77;4.93;;;;;;;;;;5029247;28;20117;-82
2023/02/24 15:09:47;;;;;;;12.10;5.03;;;;;;;;;;5023495;28;20077;-81
2023/02/24 15:12:16;;;;;;;10.10;4.97;;;;;;;;;;5027994;28;20041;-82
2023/02/24 15:14:47;;;;;;;10.73;4.88;;;;;;;;;;5031051;28;20073;-81
2023/02/24 15:17:15;;;;;;;11.27;4.85;;;;;;;;;;5031507;28;20132;-81